Flight Track Log - Related Links

Times and Time Zones

All times are in EST time to prevent confusion due to time zone crossing. See the FFT188 flight status page for this flight to view local times or setup timezone preferences in your user account.

Time Position Orientation Groundspeed Altitude Reporting Facility
EST Latitude Longitude Course Direction KTS MPH feet Rate Location/Type
Fri 09:06:38 PM 39.9167 -104.6833 21° North 177 204 6,800  Level Denver TRACON
Fri 09:07:39 PM 39.9833 -104.6500 21° North 247 284 8,600 2,283 Climbing Denver TRACON
Fri 09:08:10 PM 40.0078 -104.6186 45° Northeast 245 282 10,300 2,361 Climbing Denver Center
Fri 09:08:40 PM 40.0333 -104.6000 29° Northeast 260 299 11,000 1,500 Climbing Denver TRACON
Fri 09:09:38 PM 40.1167 -104.5500 25° Northeast 332 382 12,500 1,677 Climbing Denver TRACON
Fri 09:10:13 PM 40.1706 -104.5114 29° Northeast 347 399 13,600 2,227 Climbing Denver Center
Fri 09:11:15 PM 40.2650 -104.4464 28° Northeast 381 438 16,100 2,780 Climbing Denver Center
Fri 09:12:16 PM 40.3581 -104.3828 28° Northeast 377 434 19,300 2,878 Climbing Denver Center
Fri 09:13:18 PM 40.4442 -104.3253 27° Northeast 366 421 22,000 2,244 Climbing Denver Center
Fri 09:14:19 PM 40.5350 -104.2658 26° Northeast 365 420 23,900 1,902 Climbing Denver Center
Fri 09:15:21 PM 40.6514 -104.1950 25° Northeast 384 442 25,900 1,694 Climbing Denver Center
Fri 09:16:23 PM 40.7519 -104.1386 23° Northeast 391 450 27,400 1,415 Climbing Denver Center
Fri 09:17:24 PM 40.8503 -104.0611 31° Northeast 422 486 28,800 1,317 Climbing Denver Center
Fri 09:18:26 PM 40.9458 -103.9606 38° Northeast 439 505 30,100 1,161 Climbing Denver Center
Fri 09:19:28 PM 41.0450 -103.8589 38° Northeast 441 507 31,200 1,073 Climbing Denver Center
Fri 09:20:29 PM 41.1550 -103.7414 39° Northeast 453 521 32,300 927 Climbing Denver Center
Fri 09:21:31 PM 41.2522 -103.6392 38° Northeast 465 535 33,100 968 Climbing Denver Center
Fri 09:22:33 PM 41.3506 -103.5347 39° Northeast 473 544 34,300 1,268 Climbing Denver Center
Fri 09:23:34 PM 41.4644 -103.4131 39° Northeast 471 542 35,700 878 Climbing Denver Center
Fri 09:24:36 PM 41.5603 -103.3114 38° Northeast 466 536 36,100 634 Climbing Denver Center
Fri 09:25:37 PM 41.6753 -103.1878 39° Northeast 476 548 37,000 439 Climbing Denver Center
Fri 09:26:39 PM 41.7733 -103.0811 39° Northeast 475 547 37,000  Level Denver Center
Fri 09:27:41 PM 41.8875 -102.9575 39° Northeast 474 545 37,000 49 Level Denver Center
Fri 09:28:42 PM 41.9861 -102.8508 39° Northeast 477 549 37,100  Climbing Denver Center
Fri 09:29:44 PM 42.1014 -102.7236 39° Northeast 479 551 37,000 -48 Descending Denver Center
Fri 09:30:46 PM 42.2006 -102.6156 39° Northeast 482 555 37,000  Level Denver Center
Fri 09:31:48 PM 42.3006 -102.5044 39° Northeast 486 559 37,000  Level Denver Center
Fri 09:32:49 PM 42.4175 -102.3772 39° Northeast 484 557 37,000  Level Denver Center
Fri 09:33:51 PM 42.5139 -102.2689 40° Northeast 476 548 37,000  Level Denver Center
Fri 09:34:53 PM 42.6283 -102.1406 40° Northeast 478 550 37,000  Level Denver Center
Fri 09:35:55 PM 42.7264 -102.0289 40° Northeast 481 554 37,000 48 Level Denver Center
Fri 09:36:57 PM 42.8419 -101.8997 39° Northeast 481 554 37,100  Climbing Denver Center
Fri 09:37:59 PM 42.9511 -101.7756 40° Northeast 480 552 37,000 -48 Descending Denver Center
Fri 09:39:01 PM 43.0544 -101.6594 39° Northeast 479 551 37,000  Level Denver Center
Fri 09:40:02 PM 43.1422 -101.5581 40° Northeast 477 549 37,000  Level Denver Center
Fri 09:41:04 PM 43.2642 -101.4181 40° Northeast 477 549 37,000  Level Denver Center
Fri 09:42:06 PM 43.3656 -101.2994 40° Northeast 480 552 37,000  Level Denver Center
Fri 09:43:08 PM 43.4678 -101.1808 40° Northeast 482 555 37,000  Level Denver Center
Fri 09:44:10 PM 43.5692 -101.0633 40° Northeast 479 551 37,000  Level Denver Center
Fri 09:45:12 PM 43.6700 -100.9425 41° Northeast 481 554 37,000  Level Denver Center
Fri 09:46:14 PM 43.7728 -100.8239 40° Northeast 483 556 37,000  Level Denver Center
Fri 09:47:15 PM 43.8942 -100.6789 41° Northeast 482 555 37,000  Level Denver Center
Fri 09:48:39 PM 44.0361 -100.5103 40° Northeast 481 554 37,000  Level Minneapolis Center
Fri 09:49:40 PM 44.1378 -100.3900 40° Northeast 483 556 37,000  Level Minneapolis Center
Fri 09:50:42 PM 44.2383 -100.2694 41° Northeast 479 551 37,000  Level Minneapolis Center
Fri 09:51:43 PM 44.3394 -100.1481 41° Northeast 481 554 37,000  Level Minneapolis Center
Fri 09:52:44 PM 44.4383 -100.0275 41° Northeast 478 550 37,000  Level Minneapolis Center
Fri 09:53:45 PM 44.5381 -99.9067 41° Northeast 477 549 37,000  Level Minneapolis Center
Fri 09:54:47 PM 44.6372 -99.7853 41° Northeast 478 550 37,000  Level Minneapolis Center
Fri 09:55:48 PM 44.7356 -99.6639 41° Northeast 477 549 37,000  Level Minneapolis Center
Fri 09:56:49 PM 44.8544 -99.5183 41° Northeast 478 550 37,000 -49 Level Minneapolis Center
Fri 09:57:50 PM 44.9525 -99.3947 42° Northeast 479 551 36,900 -293 Descending Minneapolis Center
Fri 09:58:52 PM 45.0508 -99.2717 41° Northeast 478 550 36,400 -488 Descending Minneapolis Center
Fri 09:59:53 PM 45.1492 -99.1483 41° Northeast 477 549 35,900 -492 Descending Minneapolis Center
Fri 10:00:54 PM 45.2458 -99.0250 42° Northeast 473 544 35,400 -443 Descending Minneapolis Center
Fri 10:01:55 PM 45.3450 -98.8994 42° Northeast 477 549 35,000 -197 Descending Minneapolis Center
Fri 10:02:56 PM 45.4444 -98.7739 42° Northeast 478 550 35,000  Level Minneapolis Center
Fri 10:03:57 PM 45.5422 -98.6475 42° Northeast 479 551 35,000  Level Minneapolis Center
Fri 10:04:59 PM 45.6653 -98.4975 40° Northeast 484 557 35,000  Level Minneapolis Center
Fri 10:06:00 PM 45.7639 -98.3731 41° Northeast 478 550 35,000 -1,230 Level Minneapolis Center
Fri 10:07:01 PM 45.8614 -98.2456 42° Northeast 476 548 32,500 -2,705 Descending Minneapolis Center
Fri 10:08:02 PM 45.9572 -98.1214 42° Northeast 470 541 29,500 -2,852 Descending Minneapolis Center
Fri 10:09:03 PM 46.0403 -98.0022 45° Northeast 464 534 26,700 -2,852 Descending Minneapolis Center
Fri 10:10:04 PM 46.1314 -97.8858 41° Northeast 446 513 23,700 -2,927 Descending Minneapolis Center
Fri 10:11:06 PM 46.2192 -97.7678 43° Northeast 436 502 20,700 -3,171 Descending Minneapolis Center
Fri 10:12:07 PM 46.3217 -97.6311 43° Northeast 417 480 17,200 -3,148 Descending Minneapolis Center
Fri 10:13:08 PM 46.4025 -97.5214 43° Northeast 414 476 14,300 -2,852 Descending Minneapolis Center
Fri 10:14:09 PM 46.4939 -97.4158 38° Northeast 402 463 11,400 -1,721 Descending Minneapolis Center
Fri 10:15:10 PM 46.5750 -97.3211 39° Northeast 360 414 10,800 -787 Descending Minneapolis Center
Fri 10:16:11 PM 46.6386 -97.2481 38° Northeast 311 358 9,800 -1,279 Descending Minneapolis Center
Fri 10:17:12 PM 46.7033 -97.1733 38° Northeast 289 333 8,200 -1,561 Descending Minneapolis Center
Fri 10:18:14 PM 46.7658 -97.1000 39° Northeast 278 320 6,600 -1,317 Descending Minneapolis Center
Fri 10:19:15 PM 46.8208 -97.0361 38° Northeast 267 307 5,500 -934 Descending Minneapolis Center
Fri 10:20:16 PM 46.8739 -96.9733 39° Northeast 243 280 4,700 -885 Descending Minneapolis Center
Fri 10:21:17 PM 46.9231 -96.9208 36° Northeast 216 249 3,700 -934 Descending Minneapolis Center
Fri 10:22:18 PM 46.9667 -96.8936 23° Northeast 177 204 2,800 -984 Descending Minneapolis Center
Fri 10:23:19 PM 46.9683 -96.8283 88° East 160 184 1,700 -1,082 Descending Minneapolis Center
Fri 10:25:00 PM 46.9167 -96.8000 46° Northeast  Level FlightAware Approximate
Fri 10:32:00 PM 46.9207 -96.8158 46° Northeast  Level Estimated
Fri 10:33:00 PM 46.9207 -96.8158 46° Northeast  Level Estimated

Login

Don't have an account? Register now (free) for customized features, flight alerts, and more!